Thunder radar more information blitzortung!


Löydät sääaseman tiedot myös:

European Weather Network

Finland Weather Exchange

Weather Underground

AWEKAS



Weather Underground säähistoriasivu

Päivittäin yhteenveto Helmikuu 25, 2017 Yksiköt:  Englantilaiset    Metriset   Molemmat
« Edellinen Päivä
Seuraava Päivä »
Päivittäin Viikoittain Kuukausittain Vuosittain Mukautettu
  Korkea: Matala: Keskiarvo:
Lämpötila: TemperatureC °F -9.9 °F -5.6 °F
Kastepiste: DewpointC °F -11.1 °F -7.4 °F
Kosteus: Humidity % 76 % 86 %
Tuulen nopeus: WindSpeedKMH mph 0.0 mph 3.3 mph
Tuulenpuuska: WindSpeedGustKMH mph - -
Tuuli:- - WNW
Ilmanpaine: PressurehPa in 989.4 in -
Sade: 0.0 in    
Historical Graphs
 
 
Taulukkotiedot Helmikuu 25, 2017
Aika Lämpötila Kastepiste Ilmanpaine Tuuli Tuulen nopeus Tuulenpuuska Kosteus Sademäärä (tunneittain)
TemperatureC °F DewpointC °F PressurehPa in Calm     Humidity % HourlyPrecipMM in
00:00 -8.0 °F -9.2 °F 989.4 in NW 1.6 mph 6.4 mph 91 % 0.0 in
00:15 -7.9 °F -9.2 °F 989.4 in NW 3.2 mph 8.0 mph 91 % 0.0 in
00:30 -7.9 °F -9.1 °F 989.4 in NW 3.2 mph 8.0 mph 91 % 0.0 in
00:45 -7.9 °F -9.1 °F 989.7 in NW 3.2 mph 9.7 mph 91 % 0.0 in
01:00 -7.8 °F -9.0 °F 990.1 in NW 3.2 mph 12.9 mph 91 % 0.0 in
01:15 -8.0 °F -9.2 °F 990.4 in NNW 3.2 mph 8.0 mph 91 % 0.0 in
01:30 -8.1 °F -9.3 °F 990.4 in NW 3.2 mph 8.0 mph 91 % 0.0 in
01:45 -8.1 °F -9.3 °F 990.7 in NW 3.2 mph 6.4 mph 91 % 0.0 in
02:00 -7.9 °F -9.2 °F 990.7 in NW 1.6 mph 8.0 mph 91 % 0.0 in
02:15 -7.9 °F -9.2 °F 991.1 in NW 1.6 mph 8.0 mph 91 % 0.0 in
02:30 -8.0 °F -9.2 °F 991.1 in NW 3.2 mph 8.0 mph 91 % 0.0 in
02:45 -7.8 °F -8.9 °F 991.4 in NW 3.2 mph 8.0 mph 92 % 0.0 in
03:00 -7.7 °F -8.7 °F 991.4 in NW 3.2 mph 6.4 mph 92 % 0.0 in
03:15 -7.5 °F -8.6 °F 991.8 in NW 4.8 mph 11.3 mph 92 % 0.0 in
03:30 -7.4 °F -8.5 °F 992.1 in WNW 3.2 mph 11.3 mph 92 % 0.0 in
03:45 -7.4 °F -8.5 °F 992.4 in NW 3.2 mph 8.0 mph 92 % 0.0 in
04:00 -7.4 °F -8.5 °F 992.4 in Calm   6.4 mph 92 % 0.0 in
04:15 -7.3 °F -8.4 °F 992.4 in WNW 1.6 mph 6.4 mph 92 % 0.0 in
04:30 -7.2 °F -8.1 °F 992.4 in NW 3.2 mph 9.7 mph 93 % 0.0 in
04:45 -7.0 °F -8.1 °F 992.8 in NW 4.8 mph 9.7 mph 92 % 0.0 in
05:00 -6.9 °F -8.0 °F 992.8 in NW 3.2 mph 8.0 mph 92 % 0.0 in
05:15 -6.8 °F -7.9 °F 993.1 in NW 3.2 mph 12.9 mph 92 % 0.0 in
05:30 -6.8 °F -7.9 °F 993.1 in NW 3.2 mph 9.7 mph 92 % 0.0 in
05:45 -7.0 °F -8.1 °F 993.1 in NW 1.6 mph 8.0 mph 92 % 0.0 in
06:00 -7.1 °F -8.1 °F 993.5 in WNW 1.6 mph 8.0 mph 93 % 0.0 in
06:15 -7.3 °F -8.4 °F 993.5 in WNW 1.6 mph 11.3 mph 92 % 0.0 in
06:30 -7.2 °F -8.0 °F 993.8 in WNW 3.2 mph 14.5 mph 94 % 0.0 in
06:45 -6.8 °F -7.7 °F 993.8 in NW 4.8 mph 11.3 mph 93 % 0.0 in
07:00 -6.6 °F -7.7 °F 993.8 in NW 6.4 mph 9.7 mph 92 % 0.0 in
07:15 -6.8 °F -8.0 °F 993.8 in NW 4.8 mph 14.5 mph 91 % 0.0 in
07:30 -6.9 °F -8.3 °F 993.8 in NW 4.8 mph 9.7 mph 90 % 0.0 in
07:45 -7.2 °F -8.7 °F 994.1 in WNW 3.2 mph 8.0 mph 89 % 0.0 in
08:00 -7.4 °F -8.9 °F 994.1 in WNW 3.2 mph 11.3 mph 89 % 0.0 in
08:15 -7.4 °F -8.8 °F 994.1 in WNW 3.2 mph 11.3 mph 90 % 0.0 in
08:30 -7.4 °F -8.9 °F 994.5 in NW 4.8 mph 11.3 mph 89 % 0.0 in
08:45 -7.3 °F -9.0 °F 994.8 in WNW 3.2 mph 8.0 mph 88 % 0.0 in
09:00 -7.1 °F -8.8 °F 994.8 in NW 6.4 mph 12.9 mph 88 % 0.0 in
09:15 -6.9 °F -8.6 °F 995.1 in NW 4.8 mph 12.9 mph 88 % 0.0 in
09:30 -6.7 °F -8.4 °F 995.1 in WNW 4.8 mph 14.5 mph 88 % 0.0 in
09:45 -6.6 °F -8.2 °F 995.1 in WNW 4.8 mph 14.5 mph 88 % 0.0 in
10:00 -6.3 °F -7.9 °F 995.1 in NW 4.8 mph 9.7 mph 88 % 0.0 in
10:15 -5.9 °F -7.7 °F 995.1 in NW 6.4 mph 19.3 mph 87 % 0.0 in
10:30 -5.5 °F -7.5 °F 995.5 in NW 8.0 mph 19.3 mph 86 % 0.0 in
10:45 -5.2 °F -7.1 °F 995.5 in WNW 6.4 mph 11.3 mph 86 % 0.0 in
11:00 -4.8 °F -7.0 °F 995.5 in NW 6.4 mph 19.3 mph 85 % 0.0 in
11:15 -4.5 °F -6.6 °F 995.5 in NW 8.0 mph 19.3 mph 85 % 0.0 in
11:30 -4.2 °F -6.5 °F 995.5 in NW 8.0 mph 20.9 mph 84 % 0.0 in
11:45 -3.9 °F -6.2 °F 995.8 in NW 6.4 mph 16.1 mph 84 % 0.0 in
12:00 -3.7 °F -6.1 °F 995.8 in WNW 6.4 mph 19.3 mph 83 % 0.0 in
12:15 -3.4 °F -6.1 °F 995.5 in WNW 4.8 mph 16.1 mph 82 % 0.0 in
12:30 -3.2 °F -5.8 °F 995.5 in WNW 4.8 mph 20.9 mph 82 % 0.0 in
12:45 -3.1 °F -5.9 °F 995.5 in WNW 6.4 mph 16.1 mph 81 % 0.0 in
13:00 -2.9 °F -5.9 °F 995.8 in West 4.8 mph 19.3 mph 80 % 0.0 in
13:15 -2.7 °F -5.8 °F 995.8 in West 6.4 mph 17.7 mph 79 % 0.0 in
13:30 -2.4 °F -5.5 °F 995.8 in West 6.4 mph 19.3 mph 79 % 0.0 in
13:45 -2.2 °F -5.5 °F 995.8 in WNW 6.4 mph 20.9 mph 78 % 0.0 in
14:00 -2.2 °F -5.5 °F 995.8 in NW 6.4 mph 17.7 mph 78 % 0.0 in
14:15 -2.1 °F -5.4 °F 995.8 in WNW 4.8 mph 16.1 mph 78 % 0.0 in
14:30 -2.1 °F -5.4 °F 995.8 in WNW 6.4 mph 24.1 mph 78 % 0.0 in
14:45 -1.9 °F -5.4 °F 995.8 in WNW 6.4 mph 19.3 mph 77 % 0.0 in
15:00 -1.8 °F -5.3 °F 996.2 in WNW 6.4 mph 16.1 mph 77 % 0.0 in
15:15 -1.8 °F -5.5 °F 996.2 in WNW 6.4 mph 19.3 mph 76 % 0.0 in
15:30 -1.8 °F -5.5 °F 996.2 in NW 8.0 mph 20.9 mph 76 % 0.0 in
15:45 -1.7 °F -5.3 °F 996.2 in NW 4.8 mph 19.3 mph 76 % 0.0 in
16:00 -1.7 °F -5.4 °F 996.2 in West 4.8 mph 12.9 mph 76 % 0.0 in
16:15 -2.1 °F -5.4 °F 996.2 in WNW 4.8 mph 14.5 mph 78 % 0.0 in
16:30 -2.2 °F -5.5 °F 996.2 in WNW 4.8 mph 17.7 mph 78 % 0.0 in
16:45 -2.4 °F -5.6 °F 996.2 in West 3.2 mph 11.3 mph 79 % 0.0 in
17:00 -2.6 °F -5.5 °F 996.5 in WNW 3.2 mph 9.7 mph 80 % 0.0 in
17:15 -2.8 °F -5.6 °F 996.5 in West 1.6 mph 6.4 mph 81 % 0.0 in
17:30 -3.2 °F -5.8 °F 996.5 in West 1.6 mph 8.0 mph 82 % 0.0 in
17:45 -3.4 °F -5.9 °F 996.5 in West 1.6 mph 6.4 mph 83 % 0.0 in
18:00 -3.7 °F -6.0 °F 996.5 in Calm   4.8 mph 84 % 0.0 in
18:15 -4.1 °F -6.2 °F 996.5 in West 1.6 mph 4.8 mph 85 % 0.0 in
18:30 -4.4 °F -6.4 °F 996.5 in Calm   4.8 mph 86 % 0.0 in
18:45 -4.7 °F -6.6 °F 996.5 in West 1.6 mph 6.4 mph 87 % 0.0 in
19:00 -4.8 °F -6.5 °F 996.5 in WSW 1.6 mph 6.4 mph 88 % 0.0 in
19:15 -5.0 °F -6.7 °F 996.5 in WSW 1.6 mph 4.8 mph 88 % 0.0 in
19:30 -5.2 °F -6.9 °F 996.5 in WSW 1.6 mph 6.4 mph 88 % 0.0 in
19:45 -5.5 °F -7.0 °F 996.5 in WSW 1.6 mph 8.0 mph 89 % 0.0 in
20:00 -5.6 °F -7.1 °F 996.5 in Calm   3.2 mph 89 % 0.0 in
20:15 -5.6 °F -7.1 °F 996.5 in WSW 1.6 mph 4.8 mph 89 % 0.0 in
20:30 -5.6 °F -7.0 °F 996.5 in Calm     90 % 0.0 in
20:45 -5.6 °F -6.9 °F 996.5 in Calm   4.8 mph 90 % 0.0 in
21:00 -5.5 °F -7.0 °F 996.5 in Calm   3.2 mph 89 % 0.0 in
21:15 -5.7 °F -7.2 °F 996.5 in WSW 1.6 mph 4.8 mph 89 % 0.0 in
21:30 -5.9 °F -7.3 °F 996.5 in Calm   4.8 mph 90 % 0.0 in
21:45 -5.9 °F -7.3 °F 996.5 in Calm     90 % 0.0 in
22:00 -6.1 °F -7.6 °F 996.5 in Calm     89 % 0.0 in
22:15 -7.0 °F -8.7 °F 996.5 in Calm     88 % 0.0 in
22:30 -7.8 °F -9.3 °F 996.5 in Calm     89 % 0.0 in
22:45 -8.3 °F -9.6 °F 996.5 in Calm     90 % 0.0 in
23:00 -8.6 °F -9.8 °F 996.5 in Calm     91 % 0.0 in
23:15 -8.9 °F -10.3 °F 996.5 in Calm     90 % 0.0 in
23:30 -9.6 °F -11.0 °F 996.2 in Calm     89 % 0.0 in
23:45 -9.9 °F -11.1 °F 996.2 in Calm     91 % 0.0 in
Esan sääasema
Terveisin Weather Underground - 2.75 mb

Alkuperäinen skripti  Jim McMurry - jmcmurry@mwt.net Sovitettu myös templatelle  Wim van der Kuil - Leuven-Template.eu

Laitteet joita käytämme:

Sääasema
Davis VP2

Sääasemaohjelma
Cumulus

Sääaseman tietokone
Asus EeePC

Palveluntarjoaja
Suncomet

Davis VP2

Cumulus

Asus EeePC

Suncomet